sensor_id;sensor_type;location;lat;lon;timestamp;temperature;humidity
14531;DHT22;7352;50.866;4.366;2023-07-08T00:00:12;23.50;86.20
14531;DHT22;7352;50.866;4.366;2023-07-08T00:02:40;23.40;86.20
14531;DHT22;7352;50.866;4.366;2023-07-08T00:05:07;23.40;86.60
14531;DHT22;7352;50.866;4.366;2023-07-08T00:07:34;23.30;86.60
14531;DHT22;7352;50.866;4.366;2023-07-08T00:10:01;23.20;87.00
14531;DHT22;7352;50.866;4.366;2023-07-08T00:12:27;23.20;87.10
14531;DHT22;7352;50.866;4.366;2023-07-08T00:14:55;23.10;87.20
14531;DHT22;7352;50.866;4.366;2023-07-08T00:17:22;23.10;87.90
14531;DHT22;7352;50.866;4.366;2023-07-08T00:19:49;23.00;88.10
14531;DHT22;7352;50.866;4.366;2023-07-08T00:22:16;22.90;88.60
14531;DHT22;7352;50.866;4.366;2023-07-08T00:24:43;22.90;88.90
14531;DHT22;7352;50.866;4.366;2023-07-08T00:27:10;22.90;89.00
14531;DHT22;7352;50.866;4.366;2023-07-08T00:29:37;22.80;89.60
14531;DHT22;7352;50.866;4.366;2023-07-08T00:32:10;22.80;89.30
14531;DHT22;7352;50.866;4.366;2023-07-08T00:34:36;22.80;89.60
14531;DHT22;7352;50.866;4.366;2023-07-08T00:37:03;22.70;89.90
14531;DHT22;7352;50.866;4.366;2023-07-08T00:39:30;22.70;89.90
14531;DHT22;7352;50.866;4.366;2023-07-08T00:41:57;22.60;90.00
14531;DHT22;7352;50.866;4.366;2023-07-08T00:44:25;22.70;90.10
14531;DHT22;7352;50.866;4.366;2023-07-08T00:46:55;22.70;90.10
14531;DHT22;7352;50.866;4.366;2023-07-08T00:49:26;22.60;90.40
14531;DHT22;7352;50.866;4.366;2023-07-08T00:51:54;22.70;90.60
14531;DHT22;7352;50.866;4.366;2023-07-08T00:54:20;22.60;90.80
14531;DHT22;7352;50.866;4.366;2023-07-08T00:56:48;22.50;91.10
14531;DHT22;7352;50.866;4.366;2023-07-08T00:59:17;22.60;91.40
14531;DHT22;7352;50.866;4.366;2023-07-08T01:01:44;22.40;91.70
14531;DHT22;7352;50.866;4.366;2023-07-08T01:04:13;22.50;91.70
14531;DHT22;7352;50.866;4.366;2023-07-08T01:06:43;22.20;91.80
14531;DHT22;7352;50.866;4.366;2023-07-08T01:09:11;22.10;92.20
14531;DHT22;7352;50.866;4.366;2023-07-08T01:11:39;22.20;92.50
14531;DHT22;7352;50.866;4.366;2023-07-08T01:14:06;22.20;92.80
14531;DHT22;7352;50.866;4.366;2023-07-08T01:16:33;22.10;93.00
14531;DHT22;7352;50.866;4.366;2023-07-08T01:19:00;22.20;93.20
14531;DHT22;7352;50.866;4.366;2023-07-08T01:21:29;22.30;93.20
14531;DHT22;7352;50.866;4.366;2023-07-08T01:23:57;22.10;93.50
14531;DHT22;7352;50.866;4.366;2023-07-08T01:26:25;22.00;93.80
14531;DHT22;7352;50.866;4.366;2023-07-08T01:28:52;21.80;94.00
14531;DHT22;7352;50.866;4.366;2023-07-08T01:31:20;21.80;94.50
14531;DHT22;7352;50.866;4.366;2023-07-08T01:33:47;21.90;94.40
14531;DHT22;7352;50.866;4.366;2023-07-08T01:36:14;21.80;93.80
14531;DHT22;7352;50.866;4.366;2023-07-08T01:38:41;21.80;93.80
14531;DHT22;7352;50.866;4.366;2023-07-08T01:41:12;21.90;93.60
14531;DHT22;7352;50.866;4.366;2023-07-08T01:43:39;21.70;93.90
14531;DHT22;7352;50.866;4.366;2023-07-08T01:46:08;21.70;94.00
14531;DHT22;7352;50.866;4.366;2023-07-08T01:48:37;21.70;94.10
14531;DHT22;7352;50.866;4.366;2023-07-08T01:51:05;21.70;93.90
14531;DHT22;7352;50.866;4.366;2023-07-08T01:53:32;21.60;94.20
14531;DHT22;7352;50.866;4.366;2023-07-08T01:55:59;21.70;94.00
14531;DHT22;7352;50.866;4.366;2023-07-08T01:58:27;21.80;93.90
14531;DHT22;7352;50.866;4.366;2023-07-08T02:00:54;21.90;93.80
14531;DHT22;7352;50.866;4.366;2023-07-08T02:03:21;21.70;94.00
14531;DHT22;7352;50.866;4.366;2023-07-08T02:05:48;21.50;94.40
14531;DHT22;7352;50.866;4.366;2023-07-08T02:08:15;21.50;94.60
14531;DHT22;7352;50.866;4.366;2023-07-08T02:10:44;21.50;94.60
14531;DHT22;7352;50.866;4.366;2023-07-08T02:13:10;21.60;94.50
14531;DHT22;7352;50.866;4.366;2023-07-08T02:15:38;21.60;94.60
14531;DHT22;7352;50.866;4.366;2023-07-08T02:18:05;21.70;94.50
14531;DHT22;7352;50.866;4.366;2023-07-08T02:20:31;21.60;94.70
14531;DHT22;7352;50.866;4.366;2023-07-08T02:22:58;21.50;94.80
14531;DHT22;7352;50.866;4.366;2023-07-08T02:25:25;21.60;95.00
14531;DHT22;7352;50.866;4.366;2023-07-08T02:27:51;21.60;95.40
14531;DHT22;7352;50.866;4.366;2023-07-08T02:30:19;21.50;96.10
14531;DHT22;7352;50.866;4.366;2023-07-08T02:32:48;21.50;96.70
14531;DHT22;7352;50.866;4.366;2023-07-08T02:35:23;21.50;97.20
14531;DHT22;7352;50.866;4.366;2023-07-08T02:37:50;21.40;97.00
14531;DHT22;7352;50.866;4.366;2023-07-08T02:40:17;21.40;97.10
14531;DHT22;7352;50.866;4.366;2023-07-08T02:42:44;21.20;97.40
14531;DHT22;7352;50.866;4.366;2023-07-08T02:45:11;21.30;97.60
14531;DHT22;7352;50.866;4.366;2023-07-08T02:47:38;21.20;98.30
14531;DHT22;7352;50.866;4.366;2023-07-08T02:50:07;21.10;98.90
14531;DHT22;7352;50.866;4.366;2023-07-08T02:52:34;21.10;99.30
14531;DHT22;7352;50.866;4.366;2023-07-08T02:55:01;20.90;99.90
14531;DHT22;7352;50.866;4.366;2023-07-08T02:57:27;21.10;99.90
14531;DHT22;7352;50.866;4.366;2023-07-08T02:59:54;21.10;99.90
14531;DHT22;7352;50.866;4.366;2023-07-08T03:02:21;21.00;99.90
14531;DHT22;7352;50.866;4.366;2023-07-08T03:04:48;21.00;99.90
14531;DHT22;7352;50.866;4.366;2023-07-08T03:07:16;20.90;99.90
14531;DHT22;7352;50.866;4.366;2023-07-08T03:09:43;20.90;99.90
14531;DHT22;7352;50.866;4.366;2023-07-08T03:12:10;20.90;99.90
14531;DHT22;7352;50.866;4.366;2023-07-08T03:14:37;20.80;99.90
14531;DHT22;7352;50.866;4.366;2023-07-08T03:17:04;20.80;99.90
14531;DHT22;7352;50.866;4.366;2023-07-08T03:19:31;20.80;99.90
14531;DHT22;7352;50.866;4.366;2023-07-08T03:21:58;20.80;99.90
14531;DHT22;7352;50.866;4.366;2023-07-08T03:26:57;21.00;99.90
14531;DHT22;7352;50.866;4.366;2023-07-08T03:29:25;20.90;99.90
14531;DHT22;7352;50.866;4.366;2023-07-08T03:31:52;21.00;99.90
14531;DHT22;7352;50.866;4.366;2023-07-08T03:34:19;20.80;99.90
14531;DHT22;7352;50.866;4.366;2023-07-08T03:36:46;20.70;99.90
14531;DHT22;7352;50.866;4.366;2023-07-08T03:39:15;20.80;99.90
14531;DHT22;7352;50.866;4.366;2023-07-08T03:41:41;20.70;99.90
14531;DHT22;7352;50.866;4.366;2023-07-08T03:44:10;20.50;99.90
14531;DHT22;7352;50.866;4.366;2023-07-08T03:46:36;20.70;99.90
14531;DHT22;7352;50.866;4.366;2023-07-08T03:49:04;20.90;99.90
14531;DHT22;7352;50.866;4.366;2023-07-08T03:51:32;20.90;99.90
14531;DHT22;7352;50.866;4.366;2023-07-08T03:53:59;20.90;99.90
14531;DHT22;7352;50.866;4.366;2023-07-08T03:56:26;20.80;99.90
14531;DHT22;7352;50.866;4.366;2023-07-08T03:58:53;20.80;99.90
14531;DHT22;7352;50.866;4.366;2023-07-08T04:01:22;20.90;99.90
14531;DHT22;7352;50.866;4.366;2023-07-08T04:03:49;20.90;99.90
14531;DHT22;7352;50.866;4.366;2023-07-08T04:06:16;20.80;99.90
14531;DHT22;7352;50.866;4.366;2023-07-08T04:08:43;20.80;99.90
14531;DHT22;7352;50.866;4.366;2023-07-08T04:11:10;20.90;99.90
14531;DHT22;7352;50.866;4.366;2023-07-08T04:13:38;21.00;99.90
14531;DHT22;7352;50.866;4.366;2023-07-08T04:16:05;21.00;99.90
14531;DHT22;7352;50.866;4.366;2023-07-08T04:18:33;20.90;99.90
14531;DHT22;7352;50.866;4.366;2023-07-08T04:21:01;21.00;99.90
14531;DHT22;7352;50.866;4.366;2023-07-08T04:23:28;20.90;99.90
14531;DHT22;7352;50.866;4.366;2023-07-08T04:25:55;20.80;99.90
14531;DHT22;7352;50.866;4.366;2023-07-08T04:28:23;20.70;99.90
14531;DHT22;7352;50.866;4.366;2023-07-08T04:30:49;20.80;99.90
14531;DHT22;7352;50.866;4.366;2023-07-08T04:33:16;20.90;99.90
14531;DHT22;7352;50.866;4.366;2023-07-08T04:35:45;20.90;99.90
14531;DHT22;7352;50.866;4.366;2023-07-08T04:38:14;20.90;99.90
14531;DHT22;7352;50.866;4.366;2023-07-08T04:40:42;20.90;99.90
14531;DHT22;7352;50.866;4.366;2023-07-08T04:43:09;20.90;99.90
14531;DHT22;7352;50.866;4.366;2023-07-08T04:45:37;21.00;99.90
14531;DHT22;7352;50.866;4.366;2023-07-08T04:48:04;21.10;99.90
14531;DHT22;7352;50.866;4.366;2023-07-08T04:50:39;21.10;99.90
14531;DHT22;7352;50.866;4.366;2023-07-08T04:53:07;21.20;99.90
14531;DHT22;7352;50.866;4.366;2023-07-08T04:55:34;21.00;99.90
14531;DHT22;7352;50.866;4.366;2023-07-08T04:58:00;21.00;99.90
14531;DHT22;7352;50.866;4.366;2023-07-08T05:00:28;21.00;99.90
14531;DHT22;7352;50.866;4.366;2023-07-08T05:02:55;21.00;99.90
14531;DHT22;7352;50.866;4.366;2023-07-08T05:05:22;21.20;99.90
14531;DHT22;7352;50.866;4.366;2023-07-08T05:07:49;21.40;99.90
14531;DHT22;7352;50.866;4.366;2023-07-08T05:10:18;21.40;99.90
14531;DHT22;7352;50.866;4.366;2023-07-08T05:12:46;21.40;99.90
14531;DHT22;7352;50.866;4.366;2023-07-08T05:15:13;21.30;99.90
14531;DHT22;7352;50.866;4.366;2023-07-08T05:17:40;21.30;99.90
14531;DHT22;7352;50.866;4.366;2023-07-08T05:20:08;21.50;99.90
14531;DHT22;7352;50.866;4.366;2023-07-08T05:22:35;21.60;99.90
14531;DHT22;7352;50.866;4.366;2023-07-08T05:25:02;21.60;99.90
14531;DHT22;7352;50.866;4.366;2023-07-08T05:27:30;21.70;99.90
14531;DHT22;7352;50.866;4.366;2023-07-08T05:29:58;21.80;99.90
14531;DHT22;7352;50.866;4.366;2023-07-08T05:32:25;21.90;99.90
14531;DHT22;7352;50.866;4.366;2023-07-08T05:34:52;21.90;99.90
14531;DHT22;7352;50.866;4.366;2023-07-08T05:37:19;22.00;99.90
14531;DHT22;7352;50.866;4.366;2023-07-08T05:39:50;22.10;99.90
14531;DHT22;7352;50.866;4.366;2023-07-08T05:42:17;22.10;99.90
14531;DHT22;7352;50.866;4.366;2023-07-08T05:44:45;22.20;99.90
14531;DHT22;7352;50.866;4.366;2023-07-08T05:47:12;22.30;99.90
14531;DHT22;7352;50.866;4.366;2023-07-08T05:49:39;22.30;99.90
14531;DHT22;7352;50.866;4.366;2023-07-08T05:52:06;22.30;99.90
14531;DHT22;7352;50.866;4.366;2023-07-08T05:54:36;22.50;99.90
14531;DHT22;7352;50.866;4.366;2023-07-08T05:57:03;22.50;99.90
14531;DHT22;7352;50.866;4.366;2023-07-08T05:59:30;22.50;99.90
14531;DHT22;7352;50.866;4.366;2023-07-08T06:01:58;22.60;99.90
14531;DHT22;7352;50.866;4.366;2023-07-08T06:04:24;22.70;99.90
14531;DHT22;7352;50.866;4.366;2023-07-08T06:06:51;22.80;99.90
14531;DHT22;7352;50.866;4.366;2023-07-08T06:09:18;22.80;99.90
14531;DHT22;7352;50.866;4.366;2023-07-08T06:11:44;22.90;99.90
14531;DHT22;7352;50.866;4.366;2023-07-08T06:14:11;22.90;99.90
14531;DHT22;7352;50.866;4.366;2023-07-08T06:16:38;23.00;99.90
14531;DHT22;7352;50.866;4.366;2023-07-08T06:19:06;23.20;99.60
14531;DHT22;7352;50.866;4.366;2023-07-08T06:21:33;23.40;99.70
14531;DHT22;7352;50.866;4.366;2023-07-08T06:24:00;23.40;99.60
14531;DHT22;7352;50.866;4.366;2023-07-08T06:26:26;23.40;99.60
14531;DHT22;7352;50.866;4.366;2023-07-08T06:28:53;23.40;99.60
14531;DHT22;7352;50.866;4.366;2023-07-08T06:31:20;23.50;99.50
14531;DHT22;7352;50.866;4.366;2023-07-08T06:33:46;23.50;99.40
14531;DHT22;7352;50.866;4.366;2023-07-08T06:36:14;23.60;99.60
14531;DHT22;7352;50.866;4.366;2023-07-08T06:38:41;23.80;98.70
14531;DHT22;7352;50.866;4.366;2023-07-08T06:41:08;23.90;98.80
14531;DHT22;7352;50.866;4.366;2023-07-08T06:43:35;24.00;98.90
14531;DHT22;7352;50.866;4.366;2023-07-08T06:46:01;24.10;98.00
14531;DHT22;7352;50.866;4.366;2023-07-08T06:48:28;24.20;98.00
14531;DHT22;7352;50.866;4.366;2023-07-08T06:50:55;24.30;97.70
14531;DHT22;7352;50.866;4.366;2023-07-08T06:53:23;24.40;97.60
14531;DHT22;7352;50.866;4.366;2023-07-08T06:55:50;24.50;97.20
14531;DHT22;7352;50.866;4.366;2023-07-08T06:58:17;24.60;96.80
14531;DHT22;7352;50.866;4.366;2023-07-08T07:00:43;24.70;96.30
14531;DHT22;7352;50.866;4.366;2023-07-08T07:03:10;24.80;95.90
14531;DHT22;7352;50.866;4.366;2023-07-08T07:05:38;24.90;95.60
14531;DHT22;7352;50.866;4.366;2023-07-08T07:08:05;25.10;95.40
14531;DHT22;7352;50.866;4.366;2023-07-08T07:10:34;25.30;94.90
14531;DHT22;7352;50.866;4.366;2023-07-08T07:13:01;25.50;93.70
14531;DHT22;7352;50.866;4.366;2023-07-08T07:15:28;25.60;92.80
14531;DHT22;7352;50.866;4.366;2023-07-08T07:17:55;25.60;93.40
14531;DHT22;7352;50.866;4.366;2023-07-08T07:20:22;25.70;93.20
14531;DHT22;7352;50.866;4.366;2023-07-08T07:22:49;25.80;92.90
14531;DHT22;7352;50.866;4.366;2023-07-08T07:25:16;25.80;92.50
14531;DHT22;7352;50.866;4.366;2023-07-08T07:27:45;25.90;91.70
14531;DHT22;7352;50.866;4.366;2023-07-08T07:30:12;26.10;91.40
14531;DHT22;7352;50.866;4.366;2023-07-08T07:32:40;26.20;91.30
14531;DHT22;7352;50.866;4.366;2023-07-08T07:35:07;26.30;90.90
14531;DHT22;7352;50.866;4.366;2023-07-08T07:37:38;26.40;90.50
14531;DHT22;7352;50.866;4.366;2023-07-08T07:40:05;26.60;90.70
14531;DHT22;7352;50.866;4.366;2023-07-08T07:42:38;26.80;90.40
14531;DHT22;7352;50.866;4.366;2023-07-08T07:45:07;26.70;90.80
14531;DHT22;7352;50.866;4.366;2023-07-08T07:47:34;26.70;91.10
14531;DHT22;7352;50.866;4.366;2023-07-08T07:50:01;26.80;91.20
14531;DHT22;7352;50.866;4.366;2023-07-08T07:52:27;27.00;91.50
14531;DHT22;7352;50.866;4.366;2023-07-08T07:54:54;27.00;91.90
14531;DHT22;7352;50.866;4.366;2023-07-08T07:57:21;27.00;92.20
14531;DHT22;7352;50.866;4.366;2023-07-08T07:59:48;27.00;91.50
14531;DHT22;7352;50.866;4.366;2023-07-08T08:02:17;27.10;91.50
14531;DHT22;7352;50.866;4.366;2023-07-08T08:04:44;27.10;90.70
14531;DHT22;7352;50.866;4.366;2023-07-08T08:07:11;27.30;90.10
14531;DHT22;7352;50.866;4.366;2023-07-08T08:09:38;27.40;89.10
14531;DHT22;7352;50.866;4.366;2023-07-08T08:12:07;27.40;88.60
14531;DHT22;7352;50.866;4.366;2023-07-08T08:14:34;27.40;85.40
14531;DHT22;7352;50.866;4.366;2023-07-08T08:17:00;27.50;83.50
14531;DHT22;7352;50.866;4.366;2023-07-08T08:19:29;27.60;82.20
14531;DHT22;7352;50.866;4.366;2023-07-08T08:21:56;27.70;83.40
14531;DHT22;7352;50.866;4.366;2023-07-08T08:24:23;27.80;80.40
14531;DHT22;7352;50.866;4.366;2023-07-08T08:26:50;27.80;80.00
14531;DHT22;7352;50.866;4.366;2023-07-08T08:29:16;28.00;81.00
14531;DHT22;7352;50.866;4.366;2023-07-08T08:31:43;28.00;79.60
14531;DHT22;7352;50.866;4.366;2023-07-08T08:34:10;28.20;79.60
14531;DHT22;7352;50.866;4.366;2023-07-08T08:36:38;28.30;78.50
14531;DHT22;7352;50.866;4.366;2023-07-08T08:39:05;28.40;79.40
14531;DHT22;7352;50.866;4.366;2023-07-08T08:41:33;28.50;78.50
14531;DHT22;7352;50.866;4.366;2023-07-08T08:44:00;28.40;79.40
14531;DHT22;7352;50.866;4.366;2023-07-08T08:46:29;28.60;79.60
14531;DHT22;7352;50.866;4.366;2023-07-08T08:48:59;28.70;80.00
14531;DHT22;7352;50.866;4.366;2023-07-08T08:51:28;28.80;80.90
14531;DHT22;7352;50.866;4.366;2023-07-08T08:53:59;28.80;78.10
14531;DHT22;7352;50.866;4.366;2023-07-08T08:56:27;29.00;76.80
14531;DHT22;7352;50.866;4.366;2023-07-08T08:58:56;29.10;75.10
14531;DHT22;7352;50.866;4.366;2023-07-08T09:01:25;29.20;75.50
14531;DHT22;7352;50.866;4.366;2023-07-08T09:03:53;29.30;74.50
14531;DHT22;7352;50.866;4.366;2023-07-08T09:06:23;29.00;74.50
14531;DHT22;7352;50.866;4.366;2023-07-08T09:08:51;29.20;75.10
14531;DHT22;7352;50.866;4.366;2023-07-08T09:11:34;29.40;74.00
14531;DHT22;7352;50.866;4.366;2023-07-08T09:14:03;29.50;74.20
14531;DHT22;7352;50.866;4.366;2023-07-08T09:16:34;29.70;73.40
14531;DHT22;7352;50.866;4.366;2023-07-08T09:19:04;29.70;74.60
14531;DHT22;7352;50.866;4.366;2023-07-08T09:21:36;29.70;73.30
14531;DHT22;7352;50.866;4.366;2023-07-08T09:24:07;30.00;73.40
14531;DHT22;7352;50.866;4.366;2023-07-08T09:26:50;30.00;71.80
14531;DHT22;7352;50.866;4.366;2023-07-08T09:29:20;29.80;71.70
14531;DHT22;7352;50.866;4.366;2023-07-08T09:31:55;29.70;71.90
14531;DHT22;7352;50.866;4.366;2023-07-08T09:34:22;29.80;70.60
14531;DHT22;7352;50.866;4.366;2023-07-08T09:36:50;29.80;69.60
14531;DHT22;7352;50.866;4.366;2023-07-08T09:39:18;29.80;69.60
14531;DHT22;7352;50.866;4.366;2023-07-08T09:41:48;29.80;70.10
14531;DHT22;7352;50.866;4.366;2023-07-08T09:44:23;30.00;70.60
14531;DHT22;7352;50.866;4.366;2023-07-08T09:46:51;30.20;69.80
14531;DHT22;7352;50.866;4.366;2023-07-08T09:49:20;30.20;69.40
14531;DHT22;7352;50.866;4.366;2023-07-08T09:51:47;30.30;69.00
14531;DHT22;7352;50.866;4.366;2023-07-08T09:54:15;30.30;70.10
14531;DHT22;7352;50.866;4.366;2023-07-08T09:56:43;30.30;68.10
14531;DHT22;7352;50.866;4.366;2023-07-08T09:59:11;30.60;69.70
14531;DHT22;7352;50.866;4.366;2023-07-08T10:01:43;30.70;66.70
14531;DHT22;7352;50.866;4.366;2023-07-08T10:04:13;30.70;67.10
14531;DHT22;7352;50.866;4.366;2023-07-08T10:06:40;30.80;66.80
14531;DHT22;7352;50.866;4.366;2023-07-08T10:09:12;30.80;66.50
14531;DHT22;7352;50.866;4.366;2023-07-08T10:11:46;31.00;66.90
14531;DHT22;7352;50.866;4.366;2023-07-08T10:14:17;31.10;66.70
14531;DHT22;7352;50.866;4.366;2023-07-08T10:16:49;31.20;66.60
14531;DHT22;7352;50.866;4.366;2023-07-08T10:19:17;31.20;66.30
14531;DHT22;7352;50.866;4.366;2023-07-08T10:21:46;31.20;65.60
14531;DHT22;7352;50.866;4.366;2023-07-08T10:24:19;31.20;65.10
14531;DHT22;7352;50.866;4.366;2023-07-08T10:26:48;31.20;65.90
14531;DHT22;7352;50.866;4.366;2023-07-08T10:29:18;31.20;65.80
14531;DHT22;7352;50.866;4.366;2023-07-08T10:31:53;31.30;66.60
14531;DHT22;7352;50.866;4.366;2023-07-08T10:34:31;31.40;65.50
14531;DHT22;7352;50.866;4.366;2023-07-08T10:37:03;31.50;63.90
14531;DHT22;7352;50.866;4.366;2023-07-08T10:42:30;31.60;63.10
14531;DHT22;7352;50.866;4.366;2023-07-08T10:45:00;31.60;62.90
14531;DHT22;7352;50.866;4.366;2023-07-08T10:47:35;31.70;62.80
14531;DHT22;7352;50.866;4.366;2023-07-08T10:50:11;31.90;63.00
14531;DHT22;7352;50.866;4.366;2023-07-08T10:52:46;32.00;61.20
14531;DHT22;7352;50.866;4.366;2023-07-08T10:55:25;32.10;61.70
14531;DHT22;7352;50.866;4.366;2023-07-08T10:58:08;32.00;63.60
14531;DHT22;7352;50.866;4.366;2023-07-08T11:00:41;32.00;63.50
14531;DHT22;7352;50.866;4.366;2023-07-08T11:03:24;32.10;61.90
14531;DHT22;7352;50.866;4.366;2023-07-08T11:05:55;32.10;62.20
14531;DHT22;7352;50.866;4.366;2023-07-08T11:08:24;32.20;62.80
14531;DHT22;7352;50.866;4.366;2023-07-08T11:10:54;32.20;63.80
14531;DHT22;7352;50.866;4.366;2023-07-08T11:13:24;32.40;63.80
14531;DHT22;7352;50.866;4.366;2023-07-08T11:15:54;32.30;65.10
14531;DHT22;7352;50.866;4.366;2023-07-08T11:18:25;32.30;63.90
14531;DHT22;7352;50.866;4.366;2023-07-08T11:20:56;32.30;64.00
14531;DHT22;7352;50.866;4.366;2023-07-08T11:23:26;32.50;64.30
14531;DHT22;7352;50.866;4.366;2023-07-08T11:25:54;32.50;64.60
14531;DHT22;7352;50.866;4.366;2023-07-08T11:28:25;32.70;64.80
14531;DHT22;7352;50.866;4.366;2023-07-08T11:30:54;32.70;65.40
14531;DHT22;7352;50.866;4.366;2023-07-08T11:33:25;32.70;66.30
14531;DHT22;7352;50.866;4.366;2023-07-08T11:35:52;32.60;65.40
14531;DHT22;7352;50.866;4.366;2023-07-08T11:38:21;32.70;65.20
14531;DHT22;7352;50.866;4.366;2023-07-08T11:40:52;32.80;64.90
14531;DHT22;7352;50.866;4.366;2023-07-08T11:43:21;32.80;65.40
14531;DHT22;7352;50.866;4.366;2023-07-08T11:45:49;33.00;63.50
14531;DHT22;7352;50.866;4.366;2023-07-08T11:48:18;33.00;64.70
14531;DHT22;7352;50.866;4.366;2023-07-08T11:50:47;33.10;64.80
14531;DHT22;7352;50.866;4.366;2023-07-08T11:53:30;33.40;64.50
14531;DHT22;7352;50.866;4.366;2023-07-08T11:55:59;33.50;64.20
14531;DHT22;7352;50.866;4.366;2023-07-08T11:58:29;33.80;64.60
14531;DHT22;7352;50.866;4.366;2023-07-08T12:00:58;33.90;63.80
14531;DHT22;7352;50.866;4.366;2023-07-08T12:03:31;34.00;63.90
14531;DHT22;7352;50.866;4.366;2023-07-08T12:06:00;34.20;63.00
14531;DHT22;7352;50.866;4.366;2023-07-08T12:08:33;34.20;62.80
14531;DHT22;7352;50.866;4.366;2023-07-08T12:11:01;34.30;63.80
14531;DHT22;7352;50.866;4.366;2023-07-08T12:13:28;34.20;64.90
14531;DHT22;7352;50.866;4.366;2023-07-08T12:15:55;34.20;63.70
14531;DHT22;7352;50.866;4.366;2023-07-08T12:18:24;34.30;64.40
14531;DHT22;7352;50.866;4.366;2023-07-08T12:20:52;34.50;63.10
14531;DHT22;7352;50.866;4.366;2023-07-08T12:23:22;34.50;62.50
14531;DHT22;7352;50.866;4.366;2023-07-08T12:25:49;34.60;62.20
14531;DHT22;7352;50.866;4.366;2023-07-08T12:28:16;34.50;62.90
14531;DHT22;7352;50.866;4.366;2023-07-08T12:30:44;34.70;63.00
14531;DHT22;7352;50.866;4.366;2023-07-08T12:33:12;34.70;62.50
14531;DHT22;7352;50.866;4.366;2023-07-08T12:35:40;34.70;64.50
14531;DHT22;7352;50.866;4.366;2023-07-08T12:38:11;34.70;63.10
14531;DHT22;7352;50.866;4.366;2023-07-08T12:40:42;34.90;62.90
14531;DHT22;7352;50.866;4.366;2023-07-08T12:43:09;35.00;63.40
14531;DHT22;7352;50.866;4.366;2023-07-08T12:45:36;35.00;63.60
14531;DHT22;7352;50.866;4.366;2023-07-08T12:48:03;35.10;64.30
14531;DHT22;7352;50.866;4.366;2023-07-08T12:50:30;35.10;64.80
14531;DHT22;7352;50.866;4.366;2023-07-08T12:52:57;35.10;63.80
14531;DHT22;7352;50.866;4.366;2023-07-08T12:55:28;35.10;64.40
14531;DHT22;7352;50.866;4.366;2023-07-08T12:57:56;34.90;65.00
14531;DHT22;7352;50.866;4.366;2023-07-08T13:00:24;34.60;68.00
14531;DHT22;7352;50.866;4.366;2023-07-08T13:02:55;34.20;70.40
14531;DHT22;7352;50.866;4.366;2023-07-08T13:05:22;33.80;71.70
14531;DHT22;7352;50.866;4.366;2023-07-08T13:07:49;33.30;73.00
14531;DHT22;7352;50.866;4.366;2023-07-08T13:10:18;33.00;73.20
14531;DHT22;7352;50.866;4.366;2023-07-08T13:12:45;32.50;73.10
14531;DHT22;7352;50.866;4.366;2023-07-08T13:15:17;32.10;76.50
14531;DHT22;7352;50.866;4.366;2023-07-08T13:17:46;31.40;89.20
14531;DHT22;7352;50.866;4.366;2023-07-08T13:20:13;29.30;93.20
14531;DHT22;7352;50.866;4.366;2023-07-08T13:22:41;28.20;95.00
14531;DHT22;7352;50.866;4.366;2023-07-08T13:25:10;27.20;97.50
14531;DHT22;7352;50.866;4.366;2023-07-08T13:27:39;26.80;99.10
14531;DHT22;7352;50.866;4.366;2023-07-08T13:30:17;26.40;99.90
14531;DHT22;7352;50.866;4.366;2023-07-08T13:32:45;26.30;99.90
14531;DHT22;7352;50.866;4.366;2023-07-08T13:35:21;26.10;99.90
14531;DHT22;7352;50.866;4.366;2023-07-08T13:37:47;26.00;99.90
14531;DHT22;7352;50.866;4.366;2023-07-08T13:40:15;26.20;99.90
14531;DHT22;7352;50.866;4.366;2023-07-08T13:42:46;26.50;99.90
14531;DHT22;7352;50.866;4.366;2023-07-08T13:45:13;26.80;99.90
14531;DHT22;7352;50.866;4.366;2023-07-08T13:47:42;27.10;99.90
14531;DHT22;7352;50.866;4.366;2023-07-08T13:50:13;27.40;99.90
14531;DHT22;7352;50.866;4.366;2023-07-08T13:52:44;27.90;99.90
14531;DHT22;7352;50.866;4.366;2023-07-08T13:55:16;28.20;99.90
14531;DHT22;7352;50.866;4.366;2023-07-08T13:57:44;28.40;99.90
14531;DHT22;7352;50.866;4.366;2023-07-08T14:00:11;28.80;99.90
14531;DHT22;7352;50.866;4.366;2023-07-08T14:02:39;29.20;99.90
14531;DHT22;7352;50.866;4.366;2023-07-08T14:05:09;29.70;99.90
14531;DHT22;7352;50.866;4.366;2023-07-08T14:07:39;30.00;99.90
14531;DHT22;7352;50.866;4.366;2023-07-08T14:10:08;30.30;99.90
14531;DHT22;7352;50.866;4.366;2023-07-08T14:12:36;30.60;99.90
14531;DHT22;7352;50.866;4.366;2023-07-08T14:15:03;30.90;99.00
14531;DHT22;7352;50.866;4.366;2023-07-08T14:17:30;31.20;97.40
14531;DHT22;7352;50.866;4.366;2023-07-08T14:19:56;31.40;97.10
14531;DHT22;7352;50.866;4.366;2023-07-08T14:22:25;31.50;97.30
14531;DHT22;7352;50.866;4.366;2023-07-08T14:24:53;31.50;93.80
14531;DHT22;7352;50.866;4.366;2023-07-08T14:27:20;31.60;94.80
14531;DHT22;7352;50.866;4.366;2023-07-08T14:29:48;31.80;92.20
14531;DHT22;7352;50.866;4.366;2023-07-08T14:32:16;31.90;92.30
14531;DHT22;7352;50.866;4.366;2023-07-08T14:34:47;32.20;92.60
14531;DHT22;7352;50.866;4.366;2023-07-08T14:37:14;32.60;91.30
14531;DHT22;7352;50.866;4.366;2023-07-08T14:39:44;32.40;90.60
14531;DHT22;7352;50.866;4.366;2023-07-08T14:42:11;32.50;90.80
14531;DHT22;7352;50.866;4.366;2023-07-08T14:44:38;32.80;88.50
14531;DHT22;7352;50.866;4.366;2023-07-08T14:47:07;33.20;89.40
14531;DHT22;7352;50.866;4.366;2023-07-08T14:49:34;33.50;88.50
14531;DHT22;7352;50.866;4.366;2023-07-08T14:52:02;33.70;87.30
14531;DHT22;7352;50.866;4.366;2023-07-08T14:54:29;34.10;83.80
14531;DHT22;7352;50.866;4.366;2023-07-08T14:56:57;34.20;82.80
14531;DHT22;7352;50.866;4.366;2023-07-08T14:59:27;33.80;84.60
14531;DHT22;7352;50.866;4.366;2023-07-08T15:01:54;33.70;87.10
14531;DHT22;7352;50.866;4.366;2023-07-08T15:04:22;34.00;83.10
14531;DHT22;7352;50.866;4.366;2023-07-08T15:06:49;34.60;82.70
14531;DHT22;7352;50.866;4.366;2023-07-08T15:09:17;34.50;80.30
14531;DHT22;7352;50.866;4.366;2023-07-08T15:11:44;34.70;78.80
14531;DHT22;7352;50.866;4.366;2023-07-08T15:14:14;35.00;81.60
14531;DHT22;7352;50.866;4.366;2023-07-08T15:16:43;35.40;80.90
14531;DHT22;7352;50.866;4.366;2023-07-08T15:19:11;35.70;75.80
14531;DHT22;7352;50.866;4.366;2023-07-08T15:21:38;35.90;81.20
14531;DHT22;7352;50.866;4.366;2023-07-08T15:24:08;36.20;80.50
14531;DHT22;7352;50.866;4.366;2023-07-08T15:26:36;36.30;77.10
14531;DHT22;7352;50.866;4.366;2023-07-08T15:29:04;36.40;75.40
14531;DHT22;7352;50.866;4.366;2023-07-08T15:31:32;36.30;75.10
14531;DHT22;7352;50.866;4.366;2023-07-08T15:34:00;36.50;71.50
14531;DHT22;7352;50.866;4.366;2023-07-08T15:36:28;36.80;70.20
14531;DHT22;7352;50.866;4.366;2023-07-08T15:38:57;36.90;72.30
14531;DHT22;7352;50.866;4.366;2023-07-08T15:41:24;37.40;72.20
14531;DHT22;7352;50.866;4.366;2023-07-08T15:43:52;37.80;72.00
14531;DHT22;7352;50.866;4.366;2023-07-08T15:46:19;38.10;69.90
14531;DHT22;7352;50.866;4.366;2023-07-08T15:48:54;38.30;69.00
14531;DHT22;7352;50.866;4.366;2023-07-08T15:51:21;38.00;68.90
14531;DHT22;7352;50.866;4.366;2023-07-08T15:53:49;38.40;70.20
14531;DHT22;7352;50.866;4.366;2023-07-08T15:56:17;38.50;66.30